sensor_id;sensor_type;location;lat;lon;timestamp;P1;durP1;ratioP1;P2;durP2;ratioP2
34521;SDS011;25561;48.888;8.736;2023-02-15T06:50:13;530.63;;;52.13;;
34521;SDS011;25561;48.888;8.736;2023-02-15T06:53:15;218.88;;;34.10;;
34521;SDS011;25561;48.888;8.736;2023-02-15T06:56:17;231.63;;;36.78;;
34521;SDS011;25561;48.888;8.736;2023-02-15T06:59:19;371.77;;;45.45;;
34521;SDS011;25561;48.888;8.736;2023-02-15T07:02:21;178.52;;;35.65;;
34521;SDS011;25561;48.888;8.736;2023-02-15T07:05:25;322.52;;;38.92;;
34521;SDS011;25561;48.888;8.736;2023-02-15T07:08:35;414.90;;;45.55;;
34521;SDS011;25561;48.888;8.736;2023-02-15T07:11:42;121.75;;;31.05;;
34521;SDS011;25561;48.888;8.736;2023-02-15T07:15:07;243.07;;;33.55;;
34521;SDS011;25561;48.888;8.736;2023-02-15T07:18:19;83.38;;;29.70;;
34521;SDS011;25561;48.888;8.736;2023-02-15T07:21:32;87.47;;;31.52;;
34521;SDS011;25561;48.888;8.736;2023-02-15T07:24:44;91.00;;;30.45;;
34521;SDS011;25561;48.888;8.736;2023-02-15T07:27:48;87.30;;;29.90;;
34521;SDS011;25561;48.888;8.736;2023-02-15T07:31:01;89.68;;;25.05;;
34521;SDS011;25561;48.888;8.736;2023-02-15T07:34:09;58.03;;;25.77;;
34521;SDS011;25561;48.888;8.736;2023-02-15T07:37:21;100.00;;;26.17;;
34521;SDS011;25561;48.888;8.736;2023-02-15T07:40:28;95.40;;;28.05;;
34521;SDS011;25561;48.888;8.736;2023-02-15T07:43:34;139.50;;;27.53;;
34521;SDS011;25561;48.888;8.736;2023-02-15T07:46:48;62.58;;;21.33;;
34521;SDS011;25561;48.888;8.736;2023-02-15T07:49:56;104.95;;;25.45;;
34521;SDS011;25561;48.888;8.736;2023-02-15T07:53:06;137.45;;;29.80;;
34521;SDS011;25561;48.888;8.736;2023-02-15T07:56:13;190.90;;;29.70;;
34521;SDS011;25561;48.888;8.736;2023-02-15T07:59:18;151.68;;;29.38;;
34521;SDS011;25561;48.888;8.736;2023-02-15T08:02:21;655.65;;;54.90;;
34521;SDS011;25561;48.888;8.736;2023-02-15T08:05:26;220.88;;;32.10;;
34521;SDS011;25561;48.888;8.736;2023-02-15T08:08:37;317.58;;;38.30;;
34521;SDS011;25561;48.888;8.736;2023-02-15T08:11:44;169.52;;;27.52;;
34521;SDS011;25561;48.888;8.736;2023-02-15T08:17:52;126.63;;;27.92;;
34521;SDS011;25561;48.888;8.736;2023-02-15T08:20:59;159.77;;;27.75;;
34521;SDS011;25561;48.888;8.736;2023-02-15T08:24:02;83.75;;;24.50;;
34521;SDS011;25561;48.888;8.736;2023-02-15T08:27:07;191.00;;;29.65;;
34521;SDS011;25561;48.888;8.736;2023-02-15T08:30:10;87.88;;;28.15;;
34521;SDS011;25561;48.888;8.736;2023-02-15T08:33:13;150.10;;;28.95;;
34521;SDS011;25561;48.888;8.736;2023-02-15T08:36:16;171.85;;;32.40;;
34521;SDS011;25561;48.888;8.736;2023-02-15T08:39:20;181.25;;;32.22;;
34521;SDS011;25561;48.888;8.736;2023-02-15T08:42:23;97.57;;;28.80;;
34521;SDS011;25561;48.888;8.736;2023-02-15T08:45:26;205.40;;;36.90;;
34521;SDS011;25561;48.888;8.736;2023-02-15T08:48:28;124.50;;;30.95;;
34521;SDS011;25561;48.888;8.736;2023-02-15T08:51:31;92.18;;;27.25;;
34521;SDS011;25561;48.888;8.736;2023-02-15T08:54:35;153.93;;;34.75;;
34521;SDS011;25561;48.888;8.736;2023-02-15T08:57:37;101.72;;;30.45;;
34521;SDS011;25561;48.888;8.736;2023-02-15T09:00:40;90.07;;;30.88;;
34521;SDS011;25561;48.888;8.736;2023-02-15T09:03:43;68.75;;;28.58;;
34521;SDS011;25561;48.888;8.736;2023-02-15T09:06:47;85.60;;;31.92;;
34521;SDS011;25561;48.888;8.736;2023-02-15T09:09:51;76.00;;;31.27;;
34521;SDS011;25561;48.888;8.736;2023-02-15T09:12:54;94.07;;;34.47;;
34521;SDS011;25561;48.888;8.736;2023-02-15T09:16:00;103.63;;;37.35;;
34521;SDS011;25561;48.888;8.736;2023-02-15T09:19:08;104.25;;;37.03;;
34521;SDS011;25561;48.888;8.736;2023-02-15T09:22:13;93.60;;;41.20;;
34521;SDS011;25561;48.888;8.736;2023-02-15T09:25:17;104.40;;;46.05;;
34521;SDS011;25561;48.888;8.736;2023-02-15T09:28:22;88.72;;;40.88;;
34521;SDS011;25561;48.888;8.736;2023-02-15T09:31:31;87.53;;;42.72;;
34521;SDS011;25561;48.888;8.736;2023-02-15T09:34:41;81.95;;;40.78;;
34521;SDS011;25561;48.888;8.736;2023-02-15T09:37:45;78.88;;;39.70;;
34521;SDS011;25561;48.888;8.736;2023-02-15T09:40:49;56.35;;;30.13;;
34521;SDS011;25561;48.888;8.736;2023-02-15T10:18:34;65.05;;;27.20;;
34521;SDS011;25561;48.888;8.736;2023-02-15T10:25:50;106.30;;;26.27;;
34521;SDS011;25561;48.888;8.736;2023-02-15T10:32:29;153.95;;;30.95;;
34521;SDS011;25561;48.888;8.736;2023-02-15T10:49:54;236.23;;;33.90;;
34521;SDS011;25561;48.888;8.736;2023-02-15T11:06:39;234.55;;;36.72;;
34521;SDS011;25561;48.888;8.736;2023-02-15T11:10:07;73.50;;;31.00;;
34521;SDS011;25561;48.888;8.736;2023-02-15T11:13:25;103.80;;;31.65;;
34521;SDS011;25561;48.888;8.736;2023-02-15T11:16:37;102.95;;;35.88;;
34521;SDS011;25561;48.888;8.736;2023-02-15T11:20:02;87.45;;;37.45;;
34521;SDS011;25561;48.888;8.736;2023-02-15T11:23:26;112.35;;;42.95;;
34521;SDS011;25561;48.888;8.736;2023-02-15T11:33:04;103.45;;;40.55;;
34521;SDS011;25561;48.888;8.736;2023-02-15T11:36:09;100.28;;;41.85;;
34521;SDS011;25561;48.888;8.736;2023-02-15T11:39:18;93.25;;;40.40;;
34521;SDS011;25561;48.888;8.736;2023-02-15T11:42:23;89.80;;;37.85;;
34521;SDS011;25561;48.888;8.736;2023-02-15T11:45:30;92.50;;;38.38;;
34521;SDS011;25561;48.888;8.736;2023-02-15T11:48:34;83.75;;;37.60;;
34521;SDS011;25561;48.888;8.736;2023-02-15T11:51:35;89.30;;;35.60;;
34521;SDS011;25561;48.888;8.736;2023-02-15T11:54:41;76.50;;;35.00;;
34521;SDS011;25561;48.888;8.736;2023-02-15T11:57:48;80.63;;;34.75;;
34521;SDS011;25561;48.888;8.736;2023-02-15T12:01:02;74.20;;;32.00;;
34521;SDS011;25561;48.888;8.736;2023-02-15T12:04:25;67.07;;;32.33;;
34521;SDS011;25561;48.888;8.736;2023-02-15T12:07:35;68.60;;;32.17;;
34521;SDS011;25561;48.888;8.736;2023-02-15T12:10:49;71.50;;;32.45;;
34521;SDS011;25561;48.888;8.736;2023-02-15T12:14:13;56.58;;;27.85;;
34521;SDS011;25561;48.888;8.736;2023-02-15T12:17:18;62.47;;;30.83;;
34521;SDS011;25561;48.888;8.736;2023-02-15T12:20:24;52.95;;;26.92;;
34521;SDS011;25561;48.888;8.736;2023-02-15T12:23:32;62.55;;;28.83;;
34521;SDS011;25561;48.888;8.736;2023-02-15T12:26:35;54.97;;;27.45;;
34521;SDS011;25561;48.888;8.736;2023-02-15T12:29:45;55.13;;;26.73;;
34521;SDS011;25561;48.888;8.736;2023-02-15T12:32:56;54.42;;;25.17;;
34521;SDS011;25561;48.888;8.736;2023-02-15T12:36:15;46.08;;;24.67;;
34521;SDS011;25561;48.888;8.736;2023-02-15T12:39:33;41.40;;;21.70;;
34521;SDS011;25561;48.888;8.736;2023-02-15T12:42:42;46.63;;;21.10;;
34521;SDS011;25561;48.888;8.736;2023-02-15T12:45:45;41.40;;;20.10;;
34521;SDS011;25561;48.888;8.736;2023-02-15T12:48:50;45.80;;;22.63;;
34521;SDS011;25561;48.888;8.736;2023-02-15T12:52:24;40.17;;;21.38;;
34521;SDS011;25561;48.888;8.736;2023-02-15T12:55:32;38.53;;;21.10;;
34521;SDS011;25561;48.888;8.736;2023-02-15T12:58:35;38.13;;;21.10;;
34521;SDS011;25561;48.888;8.736;2023-02-15T13:01:40;43.58;;;21.90;;
34521;SDS011;25561;48.888;8.736;2023-02-15T13:04:48;48.25;;;21.42;;
34521;SDS011;25561;48.888;8.736;2023-02-15T13:11:21;44.75;;;21.23;;
34521;SDS011;25561;48.888;8.736;2023-02-15T13:14:36;42.47;;;20.67;;
34521;SDS011;25561;48.888;8.736;2023-02-15T13:17:39;42.90;;;21.88;;
34521;SDS011;25561;48.888;8.736;2023-02-15T13:20:41;44.83;;;21.45;;
34521;SDS011;25561;48.888;8.736;2023-02-15T13:23:48;42.15;;;20.55;;
34521;SDS011;25561;48.888;8.736;2023-02-15T13:26:54;38.92;;;20.38;;
34521;SDS011;25561;48.888;8.736;2023-02-15T13:30:23;44.00;;;21.15;;
34521;SDS011;25561;48.888;8.736;2023-02-15T13:36:45;41.40;;;21.90;;
34521;SDS011;25561;48.888;8.736;2023-02-15T13:43:47;40.65;;;21.88;;
34521;SDS011;25561;48.888;8.736;2023-02-15T13:56:51;45.20;;;21.13;;
34521;SDS011;25561;48.888;8.736;2023-02-15T14:10:59;37.65;;;19.17;;
34521;SDS011;25561;48.888;8.736;2023-02-15T14:18:01;35.38;;;19.58;;
34521;SDS011;25561;48.888;8.736;2023-02-15T14:21:17;39.15;;;21.30;;
34521;SDS011;25561;48.888;8.736;2023-02-15T14:30:58;41.78;;;20.55;;
34521;SDS011;25561;48.888;8.736;2023-02-15T14:34:02;46.92;;;21.85;;
34521;SDS011;25561;48.888;8.736;2023-02-15T14:37:05;43.35;;;21.05;;
34521;SDS011;25561;48.888;8.736;2023-02-15T14:40:24;45.15;;;22.02;;
34521;SDS011;25561;48.888;8.736;2023-02-15T14:44:08;38.15;;;21.80;;
34521;SDS011;25561;48.888;8.736;2023-02-15T14:47:25;39.60;;;22.60;;
34521;SDS011;25561;48.888;8.736;2023-02-15T14:50:37;40.10;;;22.20;;
34521;SDS011;25561;48.888;8.736;2023-02-15T14:53:39;42.67;;;22.10;;
34521;SDS011;25561;48.888;8.736;2023-02-15T14:56:43;45.30;;;21.83;;
34521;SDS011;25561;48.888;8.736;2023-02-15T15:03:34;46.22;;;22.30;;
34521;SDS011;25561;48.888;8.736;2023-02-15T15:06:38;44.30;;;22.27;;
34521;SDS011;25561;48.888;8.736;2023-02-15T15:09:42;47.65;;;21.63;;
34521;SDS011;25561;48.888;8.736;2023-02-15T15:12:47;40.10;;;21.70;;
34521;SDS011;25561;48.888;8.736;2023-02-15T15:15:51;52.30;;;22.40;;
34521;SDS011;25561;48.888;8.736;2023-02-15T15:18:55;46.28;;;22.55;;
34521;SDS011;25561;48.888;8.736;2023-02-15T15:22:02;57.45;;;23.05;;
34521;SDS011;25561;48.888;8.736;2023-02-15T15:25:12;48.60;;;24.05;;
34521;SDS011;25561;48.888;8.736;2023-02-15T15:31:45;46.47;;;23.65;;
34521;SDS011;25561;48.888;8.736;2023-02-15T15:38:20;43.58;;;23.73;;
34521;SDS011;25561;48.888;8.736;2023-02-15T15:42:12;48.35;;;24.52;;
34521;SDS011;25561;48.888;8.736;2023-02-15T15:49:01;49.95;;;24.73;;
34521;SDS011;25561;48.888;8.736;2023-02-15T15:52:12;51.92;;;25.23;;
34521;SDS011;25561;48.888;8.736;2023-02-15T15:55:21;52.67;;;24.73;;
34521;SDS011;25561;48.888;8.736;2023-02-15T15:58:24;46.97;;;24.27;;
34521;SDS011;25561;48.888;8.736;2023-02-15T16:01:27;51.03;;;25.60;;
34521;SDS011;25561;48.888;8.736;2023-02-15T16:04:32;45.00;;;22.25;;
34521;SDS011;25561;48.888;8.736;2023-02-15T16:07:35;44.47;;;23.77;;
34521;SDS011;25561;48.888;8.736;2023-02-15T16:10:37;49.50;;;23.42;;
34521;SDS011;25561;48.888;8.736;2023-02-15T16:13:40;47.50;;;24.08;;
34521;SDS011;25561;48.888;8.736;2023-02-15T16:16:46;50.60;;;23.75;;
34521;SDS011;25561;48.888;8.736;2023-02-15T16:19:52;50.45;;;22.52;;
34521;SDS011;25561;48.888;8.736;2023-02-15T16:26:28;53.47;;;23.90;;
34521;SDS011;25561;48.888;8.736;2023-02-15T16:29:51;58.28;;;23.23;;
34521;SDS011;25561;48.888;8.736;2023-02-15T16:33:03;53.38;;;26.70;;
34521;SDS011;25561;48.888;8.736;2023-02-15T16:39:30;66.45;;;30.88;;
34521;SDS011;25561;48.888;8.736;2023-02-15T16:42:41;57.20;;;29.27;;
34521;SDS011;25561;48.888;8.736;2023-02-15T16:45:43;51.58;;;26.10;;
34521;SDS011;25561;48.888;8.736;2023-02-15T16:48:45;228.38;;;43.60;;
34521;SDS011;25561;48.888;8.736;2023-02-15T16:52:02;209.18;;;50.97;;
34521;SDS011;25561;48.888;8.736;2023-02-15T16:55:07;162.85;;;77.13;;
34521;SDS011;25561;48.888;8.736;2023-02-15T16:58:22;108.88;;;59.35;;
